Time;durP1;ratioP1;P1;durP2;ratioP2;P2;SDS_P1;SDS_P2;PMS_P1;PMS_P2;Temp;Humidity;BMP_temperature;BMP_pressure;BME280_temperature;BME280_humidity;BME280_pressure;Samples;Min_cycle;Max_cycle;Signal;HPM_P1;HPM_P2
2023/05/30 00:05:00;;;;;;;3.08;1.20;;;;;;;12.61;89.20;98923.19;15295118;19;20006;-79
2023/05/30 00:10:25;;;;;;;2.50;1.27;;;;;;;12.51;91.40;98922.47;15296682;19;20013;-78
2023/05/30 00:15:51;;;;;;;3.53;1.25;;;;;;;12.41;93.01;98922.56;15299363;19;20010;-78
2023/05/30 00:21:20;;;;;;;3.30;1.33;;;;;;;12.32;95.92;98919.84;15294360;19;20407;-78
2023/05/30 00:26:44;;;;;;;4.38;1.50;;;;;;;12.25;95.47;98913.38;15298180;19;20014;-78
2023/05/30 00:32:09;;;;;;;3.92;1.42;;;;;;;12.18;97.80;98931.22;15302934;19;20015;-79
2023/05/30 00:37:36;;;;;;;2.97;1.50;;;;;;;12.08;99.01;98931.34;15298869;19;20034;-79
2023/05/30 00:43:02;;;;;;;3.78;1.60;;;;;;;11.97;100.00;98927.00;15300848;19;20013;-79
2023/05/30 00:48:27;;;;;;;2.35;1.38;;;;;;;11.91;100.00;98919.56;15298778;19;20023;-79
2023/05/30 00:53:58;;;;;;;3.13;1.30;;;;;;;11.88;100.00;98933.34;15299622;19;20015;-81
2023/05/30 00:59:23;;;;;;;3.85;1.60;;;;;;;11.80;100.00;98936.00;15297301;19;20018;-80
2023/05/30 01:04:50;;;;;;;2.45;1.27;;;;;;;11.75;100.00;98938.31;15304860;19;20019;-79
2023/05/30 01:10:26;;;;;;;3.28;1.38;;;;;;;11.74;100.00;98931.22;14790191;19;10000499;-79
2023/05/30 01:15:55;;;;;;;3.92;1.60;;;;;;;11.70;100.00;98926.13;15314054;19;20022;-78
2023/05/30 01:21:21;;;;;;;4.80;1.70;;;;;;;11.67;100.00;98931.00;15301720;19;20628;-77
2023/05/30 01:27:03;;;;;;;3.95;1.30;;;;;;;11.59;100.00;98929.06;15299785;19;20011;-82
2023/05/30 01:32:31;;;;;;;3.60;1.42;;;;;;;11.44;100.00;98922.53;15305370;19;20589;-82
2023/05/30 01:37:56;;;;;;;4.82;1.40;;;;;;;11.28;100.00;98925.94;15304568;19;20021;-79
2023/05/30 01:43:32;;;;;;;3.53;1.58;;;;;;;11.12;100.00;98932.84;15304724;19;20010;-80
2023/05/30 01:49:06;;;;;;;4.63;1.42;;;;;;;10.98;100.00;98936.91;15296845;19;20098;-78
2023/05/30 01:54:32;;;;;;;3.65;1.40;;;;;;;10.85;100.00;98939.13;15298885;19;20403;-82
2023/05/30 02:00:00;;;;;;;3.35;1.50;;;;;;;10.82;100.00;98936.72;15294371;19;20010;-79
2023/05/30 02:05:29;;;;;;;3.08;1.23;;;;;;;10.78;100.00;98931.63;15300973;19;19998;-81
2023/05/30 02:10:54;;;;;;;3.00;1.27;;;;;;;10.73;100.00;98939.31;15303119;19;20406;-80
2023/05/30 02:16:18;;;;;;;3.00;1.40;;;;;;;10.67;100.00;98945.28;15302133;19;20015;-79
2023/05/30 02:21:46;;;;;;;3.15;1.40;;;;;;;10.52;100.00;98941.41;15306956;19;20019;-78
2023/05/30 02:27:10;;;;;;;3.97;1.58;;;;;;;10.37;100.00;98944.53;15295366;19;20455;-79
2023/05/30 02:32:36;;;;;;;3.15;1.50;;;;;;;10.26;100.00;98942.03;15293816;19;20414;-78
2023/05/30 02:38:05;;;;;;;3.75;1.45;;;;;;;10.13;100.00;98943.19;15295692;19;20095;-80
2023/05/30 02:43:30;;;;;;;4.55;1.60;;;;;;;10.03;100.00;98953.13;15313403;19;20532;-81
2023/05/30 02:48:55;;;;;;;3.92;1.60;;;;;;;9.89;100.00;98951.72;15316798;19;20003;-80
2023/05/30 02:54:24;;;;;;;3.33;1.50;;;;;;;9.78;100.00;98951.88;15311097;19;20468;-82
2023/05/30 03:00:13;;;;;;;3.05;1.40;;;;;;;9.70;100.00;98955.31;15302149;19;20011;-80
2023/05/30 03:06:14;;;;;;;3.75;1.40;;;;;;;9.73;100.00;98954.16;15303800;19;20007;-80
2023/05/30 03:11:58;;;;;;;3.63;1.35;;;;;;;9.65;100.00;98971.00;15353223;19;20491;-83
2023/05/30 03:17:24;;;;;;;4.80;1.45;;;;;;;9.60;100.00;98979.50;15289968;19;21021;-81
2023/05/30 03:22:48;;;;;;;3.30;1.60;;;;;;;9.52;100.00;98982.91;15298039;19;20031;-80
2023/05/30 03:28:17;;;;;;;4.65;1.40;;;;;;;9.45;100.00;98992.53;15309351;19;20007;-81
2023/05/30 03:33:58;;;;;;;2.78;1.30;;;;;;;9.32;100.00;98986.56;15313602;19;20011;-82
2023/05/30 03:39:23;;;;;;;4.15;1.45;;;;;;;9.20;100.00;98994.75;15320420;19;20039;-80
2023/05/30 03:44:50;;;;;;;3.80;1.60;;;;;;;9.12;100.00;98999.97;15329548;19;20002;-83
2023/05/30 03:50:15;;;;;;;4.32;1.38;;;;;;;9.06;100.00;99005.91;15316123;19;20014;-82
2023/05/30 03:55:40;;;;;;;3.03;1.60;;;;;;;8.97;100.00;99015.63;15329465;19;20022;-81
2023/05/30 04:01:08;;;;;;;3.47;1.30;;;;;;;8.88;100.00;99017.28;15330329;19;20018;-83
2023/05/30 04:06:36;;;;;;;3.72;1.58;;;;;;;8.79;100.00;99012.72;15330953;19;20480;-86
2023/05/30 04:12:01;;;;;;;2.55;1.40;;;;;;;8.75;100.00;99019.38;15335202;19;20023;-82
2023/05/30 04:17:30;;;;;;;3.97;1.45;;;;;;;8.72;100.00;99027.69;15329692;19;20084;-83
2023/05/30 04:22:55;;;;;;;3.42;1.40;;;;;;;8.68;100.00;99031.63;15335874;19;20031;-84
2023/05/30 04:28:21;;;;;;;4.47;1.48;;;;;;;8.64;100.00;99039.94;15321020;19;20513;-84
2023/05/30 04:33:51;;;;;;;4.95;1.50;;;;;;;8.65;100.00;99032.75;15324710;19;20391;-83
2023/05/30 04:39:15;;;;;;;3.30;1.27;;;;;;;8.70;100.00;99035.03;15303834;19;20090;-81
2023/05/30 04:44:42;;;;;;;5.43;1.40;;;;;;;8.76;100.00;99034.50;15308808;19;20014;-83
2023/05/30 04:50:14;;;;;;;3.35;1.52;;;;;;;8.81;100.00;99045.69;15323442;19;20011;-82
2023/05/30 04:55:39;;;;;;;4.38;1.50;;;;;;;8.90;100.00;99042.19;15314687;19;20010;-85
2023/05/30 05:01:09;;;;;;;4.18;1.40;;;;;;;8.98;100.00;99048.75;15309683;19;20341;-83
2023/05/30 05:06:38;;;;;;;2.58;1.45;;;;;;;9.10;100.00;99053.03;15324311;19;20014;-81
2023/05/30 05:12:03;;;;;;;3.42;1.30;;;;;;;9.20;100.00;99053.03;15315190;19;20030;-81
2023/05/30 05:17:29;;;;;;;3.35;1.40;;;;;;;9.37;100.00;99048.84;15339223;19;20014;-81
2023/05/30 05:22:56;;;;;;;3.92;1.08;;;;;;;9.56;100.00;99053.41;15322111;19;20591;-80
2023/05/30 05:28:22;;;;;;;3.42;1.13;;;;;;;9.93;100.00;99035.75;15336790;19;20018;-80
2023/05/30 05:33:46;;;;;;;3.33;1.30;;;;;;;10.14;100.00;99036.44;15361751;19;20039;-80
2023/05/30 05:39:15;;;;;;;2.70;1.35;;;;;;;10.38;100.00;99043.25;15359924;19;19998;-81
2023/05/30 05:44:40;;;;;;;2.90;1.20;;;;;;;10.55;100.00;99054.25;15325400;19;20050;-79
2023/05/30 05:50:06;;;;;;;2.45;1.25;;;;;;;10.73;100.00;99046.25;15300837;19;20010;-81
2023/05/30 05:55:33;;;;;;;1.75;1.00;;;;;;;10.89;100.00;99046.50;15303829;19;20010;-80
2023/05/30 06:00:58;;;;;;;4.05;1.30;;;;;;;11.05;100.00;99055.81;15295111;19;20081;-81
2023/05/30 06:06:23;;;;;;;2.80;1.40;;;;;;;11.19;100.00;99057.97;15296022;19;20019;-81
2023/05/30 06:11:51;;;;;;;3.05;1.27;;;;;;;11.30;100.00;99069.56;15295334;19;20052;-81
2023/05/30 06:17:16;;;;;;;3.58;1.45;;;;;;;11.35;100.00;99073.50;15287473;19;20019;-83
2023/05/30 06:22:44;;;;;;;5.22;1.40;;;;;;;11.38;100.00;99072.38;15299000;19;20015;-82
2023/05/30 06:28:11;;;;;;;4.75;1.40;;;;;;;11.38;100.00;99072.38;15294985;19;20102;-81
2023/05/30 06:33:36;;;;;;;6.35;1.70;;;;;;;11.41;100.00;99069.34;15303261;19;20006;-81
2023/05/30 06:39:00;;;;;;;3.35;1.27;;;;;;;11.53;100.00;99065.44;15347234;19;20078;-83
2023/05/30 06:44:28;;;;;;;5.47;1.33;;;;;;;11.68;100.00;99067.66;15296792;19;20014;-83
2023/05/30 06:49:52;;;;;;;3.53;1.40;;;;;;;11.85;100.00;99074.06;15280719;19;20025;-82
2023/05/30 06:55:18;;;;;;;5.65;1.50;;;;;;;12.00;100.00;99072.56;15291091;19;20028;-82
2023/05/30 07:00:46;;;;;;;4.05;1.38;;;;;;;12.21;100.00;99074.09;15289532;19;20021;-81
2023/05/30 07:06:12;;;;;;;6.10;1.45;;;;;;;12.35;100.00;99080.78;15283848;19;20018;-80
2023/05/30 07:11:36;;;;;;;3.95;1.50;;;;;;;12.53;100.00;99083.44;15288048;19;20018;-83
2023/05/30 07:17:04;;;;;;;3.85;1.45;;;;;;;12.73;100.00;99081.41;15285157;19;20136;-81
2023/05/30 07:22:29;;;;;;;4.95;1.75;;;;;;;12.90;100.00;99090.47;15283911;19;20424;-79
2023/05/30 07:27:54;;;;;;;4.43;1.42;;;;;;;13.13;100.00;99089.91;15286751;19;20014;-81
2023/05/30 07:33:21;;;;;;;4.53;1.60;;;;;;;13.26;100.00;99087.59;15288415;19;20389;-80
2023/05/30 07:38:46;;;;;;;4.05;1.58;;;;;;;13.53;100.00;99096.56;15281501;19;20034;-80
2023/05/30 07:44:10;;;;;;;5.60;1.80;;;;;;;13.61;100.00;99092.16;15290285;19;20023;-79
2023/05/30 07:49:38;;;;;;;7.78;1.98;;;;;;;13.80;100.00;99105.44;15282613;19;20410;-80
2023/05/30 07:55:02;;;;;;;4.40;1.70;;;;;;;13.98;100.00;99105.31;15276727;19;20019;-80
2023/05/30 08:00:33;;;;;;;5.40;1.70;;;;;;;14.10;100.00;99096.84;15279261;19;20018;-81
2023/05/30 08:06:08;;;;;;;3.72;1.45;;;;;;;14.23;100.00;99102.59;15281139;19;20827;-80
2023/05/30 08:11:34;;;;;;;3.42;1.33;;;;;;;14.41;100.00;99093.47;15295563;19;20003;-80
2023/05/30 08:16:58;;;;;;;4.07;1.42;;;;;;;14.59;100.00;99096.84;15296266;19;20014;-80
2023/05/30 08:22:26;;;;;;;5.40;1.48;;;;;;;14.72;100.00;99092.81;15297388;19;20022;-79
2023/05/30 08:27:51;;;;;;;3.90;1.50;;;;;;;14.85;100.00;99100.44;15287234;19;20033;-80
2023/05/30 08:33:17;;;;;;;2.80;1.20;;;;;;;14.92;100.00;99101.41;15298164;19;20018;-80
2023/05/30 08:38:44;;;;;;;4.32;1.38;;;;;;;15.03;100.00;99098.34;15292593;19;20039;-79
2023/05/30 08:44:23;;;;;;;3.67;1.40;;;;;;;15.16;100.00;99103.25;15292704;19;20595;-80
2023/05/30 08:49:48;;;;;;;5.10;1.58;;;;;;;15.29;100.00;99102.69;15292013;19;20022;-82
2023/05/30 08:55:19;;;;;;;3.58;1.40;;;;;;;15.41;98.43;99106.72;15294116;19;20624;-80
2023/05/30 09:00:51;;;;;;;4.03;1.63;;;;;;;15.43;90.14;99105.69;15285813;19;20023;-82
2023/05/30 09:06:16;;;;;;;4.57;1.38;;;;;;;15.58;86.58;99101.22;15292990;19;20018;-80
2023/05/30 09:11:43;;;;;;;2.65;1.27;;;;;;;15.63;84.92;99100.69;15292348;19;20034;-79
2023/05/30 09:17:09;;;;;;;3.92;1.40;;;;;;;15.69;87.09;99092.69;15293139;19;20021;-79
2023/05/30 09:22:35;;;;;;;5.50;1.65;;;;;;;15.68;83.31;99096.41;15290788;19;20015;-79
2023/05/30 09:28:04;;;;;;;3.83;1.33;;;;;;;15.88;81.45;99106.03;15291619;19;20121;-80
2023/05/30 09:33:29;;;;;;;5.20;1.60;;;;;;;15.75;82.48;99106.56;15292677;19;20282;-79
2023/05/30 09:38:58;;;;;;;3.95;1.30;;;;;;;15.91;68.70;99101.06;15289679;19;20543;-82
2023/05/30 09:44:28;;;;;;;2.88;1.20;;;;;;;16.05;71.07;99102.16;15291960;19;20574;-79
2023/05/30 09:49:53;;;;;;;1.77;0.88;;;;;;;16.26;67.04;99101.50;15286331;19;20007;-81
2023/05/30 09:55:21;;;;;;;5.05;1.20;;;;;;;16.45;67.73;99102.91;15290100;19;20029;-82
2023/05/30 10:00:54;;;;;;;2.88;1.00;;;;;;;16.57;61.13;99106.00;15299766;19;20021;-79
2023/05/30 10:06:23;;;;;;;2.72;1.10;;;;;;;16.57;56.20;99099.75;15298545;19;20018;-80
2023/05/30 10:11:48;;;;;;;4.78;1.10;;;;;;;16.69;59.34;99098.25;15298049;19;20042;-81
2023/05/30 10:17:38;;;;;;;3.33;1.00;;;;;;;16.81;58.01;99101.38;15315546;19;20010;-82
2023/05/30 10:23:07;;;;;;;3.00;1.17;;;;;;;16.85;56.46;99101.84;15342405;19;20369;-80
2023/05/30 10:28:35;;;;;;;5.07;1.20;;;;;;;17.01;55.79;99106.28;15280139;19;20015;-80
2023/05/30 10:34:08;;;;;;;3.38;1.10;;;;;;;16.97;54.67;99100.38;15281470;19;20026;-81
2023/05/30 10:39:40;;;;;;;4.57;1.20;;;;;;;17.18;55.06;99098.81;15283213;19;20089;-79
2023/05/30 10:45:16;;;;;;;5.18;1.42;;;;;;;17.29;55.84;99086.59;15285617;19;20010;-79
2023/05/30 10:50:56;;;;;;;3.60;1.08;;;;;;;17.40;59.02;99088.84;15284239;19;20254;-81
2023/05/30 10:56:34;;;;;;;3.38;1.20;;;;;;;17.51;56.09;99085.63;15281955;19;20453;-80
2023/05/30 11:02:11;;;;;;;4.90;1.27;;;;;;;17.64;56.53;99086.84;15282325;19;20472;-80
2023/05/30 11:07:40;;;;;;;2.90;1.10;;;;;;;17.83;54.88;99083.50;15279504;19;20077;-80
2023/05/30 11:13:17;;;;;;;4.05;1.38;;;;;;;17.91;55.88;99078.97;15286930;19;20019;-79
2023/05/30 11:18:44;;;;;;;3.92;1.20;;;;;;;17.80;53.57;99086.63;15280000;19;20007;-80
2023/05/30 11:24:25;;;;;;;6.03;1.17;;;;;;;17.99;50.97;99071.53;15266381;19;20017;-44
2023/05/30 11:29:53;;;;;;;3.53;1.30;;;;;;;18.08;52.58;99071.44;15271830;19;20035;-48
2023/05/30 11:35:19;;;;;;;4.28;1.02;;;;;;;18.19;53.80;99073.66;15276875;19;20022;-47
2023/05/30 11:40:47;;;;;;;4.45;1.05;;;;;;;18.43;52.14;99066.09;15268327;19;20556;-47
2023/05/30 11:46:15;;;;;;;5.53;1.27;;;;;;;18.39;52.50;99076.56;15288330;19;20021;-44
2023/05/30 11:51:41;;;;;;;5.50;1.27;;;;;;;18.61;50.96;99068.34;15286143;19;20010;-44
2023/05/30 11:57:11;;;;;;;4.32;1.20;;;;;;;18.83;52.81;99063.66;15289008;19;20017;-48
2023/05/30 12:02:37;;;;;;;3.05;1.15;;;;;;;18.85;49.10;99060.75;15285980;19;20017;-45
2023/05/30 12:08:02;;;;;;;2.38;1.10;;;;;;;19.14;52.10;99067.03;15288199;19;20033;-49
2023/05/30 12:13:29;;;;;;;6.85;1.40;;;;;;;19.46;51.55;99062.78;15283005;19;20042;-48
2023/05/30 12:18:55;;;;;;;4.45;1.40;;;;;;;19.66;50.63;99065.63;15286047;19;20586;-45
2023/05/30 12:24:26;;;;;;;3.60;1.33;;;;;;;19.72;49.81;99061.22;15281610;19;20036;-45
2023/05/30 12:29:53;;;;;;;4.70;1.40;;;;;;;19.64;50.65;99048.56;15283824;19;20349;-46
2023/05/30 12:35:18;;;;;;;4.00;1.20;;;;;;;19.56;52.45;99046.88;15289032;19;20842;-44
2023/05/30 12:40:48;;;;;;;4.65;1.38;;;;;;;19.96;51.44;99046.16;15284122;19;20010;-41
2023/05/30 12:46:18;;;;;;;3.00;1.27;;;;;;;19.91;51.09;99056.03;15280975;19;20035;-42
2023/05/30 12:51:42;;;;;;;6.60;1.42;;;;;;;20.06;51.44;99037.56;15279867;19;20018;-44
2023/05/30 12:57:07;;;;;;;4.50;1.50;;;;;;;19.97;51.53;99047.03;15285778;19;20021;-45
2023/05/30 13:02:36;;;;;;;3.55;1.38;;;;;;;20.32;51.89;99036.75;15278779;19;20804;-43
2023/05/30 13:08:02;;;;;;;8.65;2.05;;;;;;;20.62;48.79;99041.81;15281991;19;20083;-44
2023/05/30 13:13:28;;;;;;;3.95;1.40;;;;;;;20.88;50.13;99040.09;15293261;19;20018;-46
2023/05/30 13:18:56;;;;;;;5.32;1.50;;;;;;;21.01;48.94;99049.34;15281097;19;20101;-47
2023/05/30 13:24:27;;;;;;;4.85;1.30;;;;;;;21.16;48.89;99044.47;15282975;19;20467;-47
2023/05/30 13:29:51;;;;;;;4.07;1.38;;;;;;;21.53;49.03;99046.66;15285065;19;20015;-45
2023/05/30 13:35:19;;;;;;;3.33;1.30;;;;;;;21.46;48.30;99032.97;15288059;19;20070;-44
2023/05/30 13:40:45;;;;;;;4.97;1.45;;;;;;;21.51;46.44;99030.44;15281519;19;20018;-47
2023/05/30 13:46:10;;;;;;;2.92;1.25;;;;;;;22.01;47.94;99031.66;15283705;19;20038;-44
2023/05/30 13:51:38;;;;;;;4.82;1.33;;;;;;;22.24;46.75;99038.47;15280969;19;20025;-46
2023/05/30 13:57:03;;;;;;;2.63;1.20;;;;;;;22.39;47.28;99036.25;15286501;19;20021;-44
2023/05/30 14:02:27;;;;;;;2.72;1.20;;;;;;;22.13;48.15;99024.41;15279088;19;20010;-46
2023/05/30 14:07:56;;;;;;;4.90;1.17;;;;;;;22.77;46.77;99023.47;15282386;19;20023;-45
2023/05/30 14:13:20;;;;;;;3.90;1.30;;;;;;;23.07;44.60;99023.59;15284942;19;20013;-47
2023/05/30 14:18:46;;;;;;;6.30;1.20;;;;;;;23.11;44.66;99028.63;15278218;19;20022;-47
2023/05/30 14:24:20;;;;;;;3.10;1.35;;;;;;;23.29;44.32;99014.91;15281450;19;20020;-49
2023/05/30 14:29:45;;;;;;;2.90;1.20;;;;;;;23.54;44.50;99011.22;15281009;19;20493;-48
2023/05/30 14:35:10;;;;;;;4.13;1.20;;;;;;;23.72;44.31;99009.47;15277667;19;20477;-53
2023/05/30 14:40:38;;;;;;;3.45;1.38;;;;;;;23.69;42.77;99019.03;15278229;19;20085;-50
2023/05/30 14:46:03;;;;;;;5.55;1.40;;;;;;;24.05;44.06;99010.97;15281381;19;20014;-49
2023/05/30 14:51:27;;;;;;;3.55;1.10;;;;;;;24.25;42.38;99014.22;15272084;19;20018;-49
2023/05/30 14:56:55;;;;;;;3.58;1.15;;;;;;;24.38;42.73;99009.59;15278962;19;20015;-48
2023/05/30 15:02:19;;;;;;;2.50;1.20;;;;;;;24.66;41.92;99014.41;15274477;19;20106;-49
2023/05/30 15:07:44;;;;;;;3.40;1.15;;;;;;;24.68;42.17;99014.13;15274873;19;20018;-52
2023/05/30 15:13:11;;;;;;;3.70;1.30;;;;;;;24.66;41.20;99016.28;15279097;19;20014;-48
2023/05/30 15:18:36;;;;;;;3.30;1.20;;;;;;;24.60;42.50;99007.94;15279310;19;20037;-49
2023/05/30 15:24:08;;;;;;;3.20;1.40;;;;;;;24.80;41.02;99006.75;15284703;19;20035;-53
2023/05/30 15:29:38;;;;;;;5.28;1.40;;;;;;;24.67;39.66;99002.28;15288283;19;20011;-47
2023/05/30 15:35:03;;;;;;;2.27;1.20;;;;;;;24.47;41.41;98994.38;15290701;19;20018;-47
2023/05/30 15:40:31;;;;;;;3.35;1.40;;;;;;;24.61;40.85;98997.72;15282760;19;20031;-45
2023/05/30 15:46:00;;;;;;;3.55;1.48;;;;;;;24.52;40.60;98994.47;15288282;19;20031;-49
2023/05/30 15:51:26;;;;;;;2.95;1.33;;;;;;;24.23;40.53;98980.59;15285448;19;20014;-48
2023/05/30 15:56:54;;;;;;;4.60;1.42;;;;;;;24.47;40.83;98986.13;15282377;19;20026;-46
2023/05/30 16:02:22;;;;;;;4.43;1.63;;;;;;;24.67;39.43;98982.16;15279793;19;20881;-48
2023/05/30 16:07:49;;;;;;;4.88;1.60;;;;;;;24.61;40.34;98978.44;15285681;19;20014;-52
2023/05/30 16:13:15;;;;;;;2.58;1.30;;;;;;;24.76;39.17;98972.47;15286222;19;20010;-45
2023/05/30 16:18:43;;;;;;;2.65;1.20;;;;;;;24.69;39.59;98969.00;15286382;19;20011;-45
2023/05/30 16:24:15;;;;;;;4.00;1.35;;;;;;;24.72;39.83;98976.81;15286857;19;20025;-44
2023/05/30 16:29:41;;;;;;;2.17;1.10;;;;;;;24.94;40.15;98988.03;15278022;19;20026;-48
2023/05/30 16:35:10;;;;;;;4.85;1.30;;;;;;;25.25;40.15;98972.16;15288482;19;20029;-47
2023/05/30 16:40:36;;;;;;;4.97;1.38;;;;;;;25.14;39.67;98979.38;15285436;19;20027;-49
2023/05/30 16:46:03;;;;;;;5.45;1.60;;;;;;;24.54;41.03;98974.97;15282603;19;20282;-47
2023/05/30 16:51:32;;;;;;;5.38;1.65;;;;;;;24.49;40.03;98963.84;15276342;19;20018;-50
2023/05/30 16:56:59;;;;;;;4.45;1.45;;;;;;;24.45;40.59;98969.00;15282655;19;20010;-48
2023/05/30 17:02:26;;;;;;;3.50;1.40;;;;;;;24.87;40.81;98971.63;15272696;19;20018;-44
2023/05/30 17:07:53;;;;;;;2.80;1.40;;;;;;;25.12;40.90;98977.94;15284947;19;20017;-47
2023/05/30 17:13:18;;;;;;;4.15;1.50;;;;;;;25.07;40.81;98985.03;15280149;19;20022;-48
2023/05/30 17:18:43;;;;;;;3.67;1.50;;;;;;;24.97;40.17;98984.81;15280197;19;20042;-49
2023/05/30 17:24:17;;;;;;;3.55;1.45;;;;;;;24.93;39.46;98984.44;15280453;19;20054;-50
2023/05/30 17:29:41;;;;;;;4.97;1.50;;;;;;;24.50;40.21;98982.91;15257388;19;20081;-50
2023/05/30 17:35:06;;;;;;;5.05;1.80;;;;;;;24.17;40.55;98981.53;15276868;19;20014;-49
2023/05/30 17:40:33;;;;;;;4.60;1.35;;;;;;;23.84;40.74;98982.84;15277265;19;20013;-48
2023/05/30 17:45:59;;;;;;;3.78;1.30;;;;;;;23.86;41.77;98986.22;15282104;19;20399;-49
2023/05/30 17:51:24;;;;;;;4.32;1.55;;;;;;;23.88;42.05;98994.22;15274247;19;20290;-46
2023/05/30 17:56:51;;;;;;;5.55;1.33;;;;;;;23.77;42.11;98999.47;15280261;19;20007;-48
2023/05/30 18:02:16;;;;;;;3.85;1.60;;;;;;;23.67;42.81;98999.19;15279153;19;20006;-50
2023/05/30 18:07:40;;;;;;;4.60;1.50;;;;;;;23.38;42.89;98996.19;15274459;19;20017;-46
2023/05/30 18:13:07;;;;;;;6.30;1.50;;;;;;;23.12;43.88;99008.31;15278042;19;20371;-47
2023/05/30 18:18:33;;;;;;;7.20;1.50;;;;;;;22.88;44.46;99000.75;15278902;19;20019;-52
2023/05/30 18:24:04;;;;;;;3.80;1.45;;;;;;;22.43;44.87;99007.28;15274992;19;20018;-52
2023/05/30 18:29:35;;;;;;;4.90;1.60;;;;;;;21.97;46.41;99003.84;15276085;19;20020;-49
2023/05/30 18:34:59;;;;;;;3.40;1.40;;;;;;;21.51;46.83;98999.44;15276422;19;20010;-48
2023/05/30 18:40:25;;;;;;;6.38;1.70;;;;;;;21.10;48.07;99004.25;15274777;19;20015;-56
2023/05/30 18:45:53;;;;;;;3.65;1.30;;;;;;;20.64;49.28;99009.56;15276743;19;20010;-49
2023/05/30 18:51:20;;;;;;;5.35;1.55;;;;;;;20.15;50.86;99008.13;15276146;19;20110;-49
2023/05/30 18:56:46;;;;;;;5.68;1.40;;;;;;;19.78;51.74;99018.53;15277784;19;20353;-50
2023/05/30 19:02:14;;;;;;;5.00;1.40;;;;;;;19.50;52.90;99022.25;15273361;19;20074;-45
2023/05/30 19:07:40;;;;;;;3.38;1.30;;;;;;;19.17;53.12;99017.47;15277694;19;20120;-49
2023/05/30 19:13:05;;;;;;;6.13;1.70;;;;;;;18.78;55.28;99023.31;15266376;19;20014;-45
2023/05/30 19:18:33;;;;;;;3.63;1.38;;;;;;;18.40;56.27;99018.25;15270542;19;20035;-46
2023/05/30 19:24:04;;;;;;;3.40;1.30;;;;;;;18.18;57.90;99028.31;15271449;19;20415;-47
2023/05/30 19:29:30;;;;;;;3.35;1.45;;;;;;;17.87;60.43;99027.56;15272623;19;20638;-45
2023/05/30 19:34:57;;;;;;;2.90;1.40;;;;;;;17.69;62.54;99038.06;15275487;19;20018;-45
2023/05/30 19:40:22;;;;;;;3.08;1.23;;;;;;;17.51;65.66;99044.78;15274204;19;20021;-48
2023/05/30 19:45:46;;;;;;;4.65;1.50;;;;;;;17.40;66.14;99045.25;15272902;19;20018;-48
2023/05/30 19:51:15;;;;;;;3.72;1.60;;;;;;;17.25;68.93;99046.13;15276034;19;20006;-46
2023/05/30 19:56:39;;;;;;;4.65;1.42;;;;;;;17.07;69.80;99051.94;15273626;19;20018;-51
2023/05/30 20:02:04;;;;;;;3.85;1.30;;;;;;;16.98;72.03;99052.25;15272989;19;20630;-50
2023/05/30 20:07:31;;;;;;;4.40;1.60;;;;;;;16.89;72.02;99052.28;15289042;19;20362;-46
2023/05/30 20:12:56;;;;;;;3.72;1.20;;;;;;;16.78;73.74;99055.47;15281680;19;20018;-50
2023/05/30 20:18:20;;;;;;;2.97;1.30;;;;;;;16.73;73.16;99053.31;15289401;19;20021;-46
2023/05/30 20:23:55;;;;;;;2.63;1.23;;;;;;;16.66;75.14;99057.81;15286450;19;20022;-47
2023/05/30 20:29:22;;;;;;;4.20;1.38;;;;;;;16.63;73.92;99056.31;15284209;19;20492;-48
2023/05/30 20:34:47;;;;;;;3.28;1.38;;;;;;;16.58;77.58;99057.91;15291002;19;20010;-47
2023/05/30 20:40:17;;;;;;;3.03;1.35;;;;;;;16.44;80.78;99065.84;15283139;19;20022;-48
2023/05/30 20:45:42;;;;;;;4.28;1.42;;;;;;;16.23;83.19;99063.81;15283206;19;20013;-48
2023/05/30 20:51:07;;;;;;;5.97;1.30;;;;;;;16.09;86.60;99070.88;15282521;19;20014;-48
2023/05/30 20:56:35;;;;;;;3.10;1.20;;;;;;;15.98;84.35;99068.59;15288290;19;20348;-50
2023/05/30 21:02:00;;;;;;;3.53;1.25;;;;;;;15.93;83.24;99073.69;15283505;19;20077;-48
2023/05/30 21:07:24;;;;;;;4.13;1.30;;;;;;;15.91;82.08;99073.91;15290333;19;20020;-46
2023/05/30 21:12:51;;;;;;;5.07;1.27;;;;;;;15.89;83.54;99070.50;15284993;19;20029;-45
2023/05/30 21:18:16;;;;;;;4.22;1.40;;;;;;;15.86;81.84;99070.84;15283111;19;20017;-47
2023/05/30 21:23:47;;;;;;;4.68;1.35;;;;;;;15.83;85.17;99071.19;15286803;19;20018;-45
2023/05/30 21:29:14;;;;;;;4.82;1.27;;;;;;;15.74;87.77;99074.97;15285784;19;20010;-49
2023/05/30 21:34:46;;;;;;;3.38;1.40;;;;;;;15.66;88.28;99076.72;15282804;19;20139;-51
2023/05/30 21:40:12;;;;;;;2.78;1.23;;;;;;;15.62;88.69;99055.53;15281334;19;20007;-46
2023/05/30 21:45:40;;;;;;;2.35;1.10;;;;;;;15.56;88.84;99076.94;15280072;19;20017;-49
2023/05/30 21:51:05;;;;;;;4.18;1.40;;;;;;;15.39;97.29;99076.16;15278265;19;20024;-47
2023/05/30 21:56:30;;;;;;;4.72;1.40;;;;;;;15.25;94.89;99076.91;15283481;19;20290;-48
2023/05/30 22:01:58;;;;;;;3.63;1.30;;;;;;;15.15;99.15;99087.13;15279014;19;20011;-49
2023/05/30 22:07:22;;;;;;;4.43;1.35;;;;;;;15.02;98.47;99084.97;15284140;19;20077;-50
2023/05/30 22:12:47;;;;;;;3.38;1.33;;;;;;;14.91;100.00;99086.16;15282727;19;20013;-50
2023/05/30 22:18:14;;;;;;;2.60;1.20;;;;;;;14.69;100.00;99090.44;15284125;19;20018;-46
2023/05/30 22:23:45;;;;;;;4.80;1.60;;;;;;;14.43;100.00;99091.44;15275455;19;20025;-44
2023/05/30 22:29:10;;;;;;;4.10;1.40;;;;;;;14.24;100.00;99098.88;15281187;19;20014;-50
2023/05/30 22:34:37;;;;;;;4.13;1.33;;;;;;;14.01;100.00;99096.00;15279905;19;20022;-46
2023/05/30 22:40:02;;;;;;;2.95;1.45;;;;;;;13.78;100.00;99091.22;15279094;19;20498;-46
2023/05/30 22:45:26;;;;;;;3.70;1.75;;;;;;;13.62;100.00;99094.72;15281948;19;20017;-48
2023/05/30 22:50:53;;;;;;;2.70;1.35;;;;;;;13.52;100.00;99099.44;15278996;19;20504;-47
2023/05/30 22:56:18;;;;;;;3.83;1.50;;;;;;;13.41;100.00;99095.16;15276936;19;20094;-45
2023/05/30 23:01:43;;;;;;;4.43;1.70;;;;;;;13.34;100.00;99097.63;15277025;19;20038;-46
2023/05/30 23:07:10;;;;;;;3.33;1.50;;;;;;;13.29;100.00;99093.72;15281344;19;20078;-46
2023/05/30 23:12:35;;;;;;;3.40;1.40;;;;;;;13.21;100.00;99092.69;15274248;19;20034;-46
2023/05/30 23:17:59;;;;;;;3.55;1.40;;;;;;;13.15;100.00;99087.06;15278749;19;20018;-47
2023/05/30 23:23:26;;;;;;;2.80;1.30;;;;;;;13.08;100.00;99094.97;15277370;19;20018;-47
2023/05/30 23:28:51;;;;;;;2.70;1.20;;;;;;;13.01;100.00;99088.50;15272924;19;20374;-46
2023/05/30 23:34:18;;;;;;;2.58;1.40;;;;;;;12.92;100.00;99103.84;15277239;19;20426;-51
2023/05/30 23:39:45;;;;;;;4.72;1.50;;;;;;;12.81;100.00;99096.00;15281292;19;20017;-46
2023/05/30 23:45:13;;;;;;;3.72;1.40;;;;;;;12.68;100.00;99091.00;15292255;19;20017;-47
2023/05/30 23:50:37;;;;;;;3.65;1.60;;;;;;;12.58;100.00;99094.66;15290440;19;20378;-45
2023/05/30 23:56:04;;;;;;;4.03;1.60;;;;;;;12.50;100.00;99097.31;15292188;19;20018;-45
